Time;durP1;ratioP1;P1;durP2;ratioP2;P2;SDS_P1;SDS_P2;PMS_P1;PMS_P2;Temp;Humidity;BMP_temperature;BMP_pressure;BME280_temperature;BME280_humidity;BME280_pressure;Samples;Min_cycle;Max_cycle;Signal;HPM_P1;HPM_P2
2022/11/09 00:02:07;;;;;;;14.05;10.30;;;;;;;10.99;57.21;101853.72;4975043;28;20380;-78
2022/11/09 00:04:32;;;;;;;14.23;10.27;;;;;;;10.98;57.42;101854.69;4974923;28;20410;-77
2022/11/09 00:06:58;;;;;;;13.87;10.10;;;;;;;10.98;57.26;101855.50;4974917;28;20380;-78
2022/11/09 00:09:24;;;;;;;12.45;9.50;;;;;;;11.04;57.21;101862.09;4974818;28;20395;-78
2022/11/09 00:11:49;;;;;;;16.92;10.02;;;;;;;11.14;57.12;101859.38;5005883;28;20450;-77
2022/11/09 00:14:16;;;;;;;13.37;10.00;;;;;;;11.24;56.67;101855.72;5005477;28;20407;-78
2022/11/09 00:16:42;;;;;;;12.38;9.88;;;;;;;11.19;56.78;101857.97;4975125;28;20407;-78
2022/11/09 00:19:08;;;;;;;12.43;10.00;;;;;;;11.25;57.00;101861.84;4975379;28;20426;-79
2022/11/09 00:21:33;;;;;;;13.13;9.97;;;;;;;11.23;56.87;101866.47;4976507;28;20383;-78
2022/11/09 00:23:59;;;;;;;14.30;10.30;;;;;;;11.17;57.15;101864.41;4976507;28;20895;-79
2022/11/09 00:26:25;;;;;;;13.67;10.03;;;;;;;11.20;57.33;101861.44;4975824;28;20730;-78
2022/11/09 00:28:51;;;;;;;15.20;10.45;;;;;;;11.27;57.15;101859.88;4975249;28;20448;-78
2022/11/09 00:31:19;;;;;;;14.38;10.15;;;;;;;11.32;56.76;101857.63;4993309;28;20407;-79
2022/11/09 00:33:54;;;;;;;14.40;10.60;;;;;;;11.47;56.56;101858.81;4975465;28;20379;-78
2022/11/09 00:36:20;;;;;;;15.00;10.68;;;;;;;11.38;56.43;101854.41;4974871;28;20383;-79
2022/11/09 00:38:51;;;;;;;13.00;10.38;;;;;;;11.40;56.56;101856.91;4974864;28;20380;-79
2022/11/09 00:41:17;;;;;;;13.27;10.07;;;;;;;11.43;56.88;101860.09;4961487;28;20980;-78
2022/11/09 00:43:43;;;;;;;13.10;10.00;;;;;;;11.62;56.48;101855.66;4985204;28;20413;-78
2022/11/09 00:46:08;;;;;;;14.37;9.90;;;;;;;11.78;55.87;101860.31;4974473;28;20457;-78
2022/11/09 00:48:34;;;;;;;12.83;9.30;;;;;;;11.78;55.77;101850.53;4977185;28;20423;-78
2022/11/09 00:50:59;;;;;;;12.98;9.43;;;;;;;11.82;55.66;101859.88;4993190;28;20815;-78
2022/11/09 00:53:25;;;;;;;12.77;9.53;;;;;;;11.80;55.60;101850.38;5021446;28;20461;-78
2022/11/09 00:55:59;;;;;;;12.93;9.93;;;;;;;11.90;55.55;101845.00;4990680;28;20388;-78
2022/11/09 00:58:26;;;;;;;12.32;9.43;;;;;;;11.98;55.34;101845.13;4986507;28;20466;-78
2022/11/09 01:00:53;;;;;;;13.15;9.90;;;;;;;11.82;55.50;101841.25;4975688;28;20483;-78
2022/11/09 01:03:19;;;;;;;13.15;9.55;;;;;;;11.84;55.67;101849.91;4975534;28;20391;-79
2022/11/09 01:05:45;;;;;;;12.87;9.80;;;;;;;12.00;55.36;101843.97;4975284;28;20541;-79
2022/11/09 01:08:10;;;;;;;11.70;9.33;;;;;;;11.92;55.25;101849.22;4974851;28;20454;-78
2022/11/09 01:10:41;;;;;;;13.03;9.90;;;;;;;11.64;56.25;101845.72;4975065;28;20842;-79
2022/11/09 01:13:06;;;;;;;12.43;9.48;;;;;;;11.62;56.44;101845.88;4973240;28;20970;-79
2022/11/09 01:15:32;;;;;;;13.77;9.57;;;;;;;11.78;56.08;101853.19;4973740;28;20400;-79
2022/11/09 01:17:57;;;;;;;12.90;9.43;;;;;;;11.64;56.12;101843.91;4974606;28;20759;-78
2022/11/09 01:20:23;;;;;;;12.85;10.00;;;;;;;11.50;56.61;101841.75;4973877;28;20409;-78
2022/11/09 01:22:49;;;;;;;12.85;9.48;;;;;;;11.60;56.50;101836.41;4972813;28;20510;-78
2022/11/09 01:25:14;;;;;;;12.60;9.47;;;;;;;11.77;55.96;101843.53;4973461;28;20430;-78
2022/11/09 01:27:40;;;;;;;16.33;10.57;;;;;;;11.73;56.00;101833.38;4972985;28;20428;-78
2022/11/09 01:30:06;;;;;;;16.17;12.37;;;;;;;11.63;56.34;101847.56;4970583;28;20486;-78
2022/11/09 01:32:31;;;;;;;17.27;12.85;;;;;;;11.52;56.87;101853.06;4973758;28;20399;-79
2022/11/09 01:34:57;;;;;;;16.30;13.03;;;;;;;11.47;56.99;101840.22;4973700;28;20454;-77
2022/11/09 01:37:23;;;;;;;19.27;13.43;;;;;;;11.40;57.17;101836.50;4973341;28;20911;-78
2022/11/09 01:39:48;;;;;;;17.35;12.88;;;;;;;11.35;57.18;101832.63;4972567;28;20399;-78
2022/11/09 01:42:14;;;;;;;17.17;13.03;;;;;;;11.29;57.60;101842.00;4971745;28;20729;-78
2022/11/09 01:44:40;;;;;;;16.67;13.20;;;;;;;11.27;57.52;101838.63;4960331;28;20381;-78
2022/11/09 01:47:22;;;;;;;16.30;12.73;;;;;;;11.40;57.06;101840.97;4965728;28;20391;-78
2022/11/09 01:49:55;;;;;;;16.73;12.63;;;;;;;11.36;57.43;101839.59;4970577;28;20880;-78
2022/11/09 01:52:29;;;;;;;16.05;12.35;;;;;;;11.27;57.87;101846.59;4973254;28;20407;-77
2022/11/09 01:55:14;;;;;;;17.55;12.60;;;;;;;11.42;57.34;101841.66;4974053;28;20880;-77
2022/11/09 01:57:48;;;;;;;17.98;12.18;;;;;;;11.58;56.68;101844.50;4973510;28;20403;-79
2022/11/09 02:00:18;;;;;;;16.02;12.00;;;;;;;11.54;56.65;101844.94;4974089;28;20387;-78
2022/11/09 02:03:02;;;;;;;15.88;12.52;;;;;;;11.47;57.07;101845.53;4974195;28;20483;-78
2022/11/09 02:05:32;;;;;;;17.02;12.30;;;;;;;11.52;57.26;101842.44;4952360;28;20427;-78
2022/11/09 02:08:00;;;;;;;16.95;12.23;;;;;;;11.64;56.83;101845.72;4965467;28;20403;-79
2022/11/09 02:10:33;;;;;;;16.58;11.95;;;;;;;11.58;56.97;101835.72;4973984;28;20418;-78
2022/11/09 02:13:01;;;;;;;14.75;11.43;;;;;;;11.53;57.14;101845.94;4973911;28;20811;-78
2022/11/09 02:15:27;;;;;;;16.23;12.25;;;;;;;11.55;57.05;101847.44;4976707;28;20522;-78
2022/11/09 02:17:55;;;;;;;16.73;12.05;;;;;;;11.61;57.07;101852.19;4977943;28;20391;-78
2022/11/09 02:20:22;;;;;;;16.48;12.23;;;;;;;11.64;56.94;101843.91;4969129;28;20718;-78
2022/11/09 02:22:47;;;;;;;15.30;11.95;;;;;;;11.60;56.80;101845.19;5009999;28;20411;-79
2022/11/09 02:25:14;;;;;;;17.65;11.93;;;;;;;11.69;56.58;101850.59;4976790;28;20399;-78
2022/11/09 02:27:41;;;;;;;15.48;11.27;;;;;;;11.77;56.66;101853.34;4977276;28;20388;-78
2022/11/09 02:30:07;;;;;;;16.25;11.57;;;;;;;11.82;56.42;101853.72;4969119;28;20844;-78
2022/11/09 02:32:33;;;;;;;16.63;11.90;;;;;;;11.79;56.41;101851.34;4978364;28;20823;-78
2022/11/09 02:34:58;;;;;;;15.10;11.50;;;;;;;11.76;56.81;101859.66;4978057;28;20382;-78
2022/11/09 02:37:37;;;;;;;16.03;12.10;;;;;;;11.88;56.38;101846.97;4978553;28;21254;-78
2022/11/09 02:40:08;;;;;;;16.60;11.57;;;;;;;11.84;56.66;101846.44;4978178;28;20399;-77
2022/11/09 02:42:34;;;;;;;15.93;12.45;;;;;;;11.69;57.13;101854.09;4978103;28;20514;-78
2022/11/09 02:44:59;;;;;;;16.17;12.48;;;;;;;11.68;57.19;101860.38;4973747;28;20429;-78
2022/11/09 02:47:26;;;;;;;18.83;14.93;;;;;;;11.63;57.67;101860.84;4975388;28;20419;-77
2022/11/09 02:49:51;;;;;;;19.27;14.55;;;;;;;11.56;57.89;101857.09;4975373;28;20445;-77
2022/11/09 02:52:17;;;;;;;20.92;15.45;;;;;;;11.72;57.16;101861.78;4976747;28;20395;-78
2022/11/09 02:54:43;;;;;;;18.95;16.05;;;;;;;11.97;56.73;101862.03;4977010;28;20776;-78
2022/11/09 02:57:08;;;;;;;21.30;16.63;;;;;;;12.10;56.27;101865.16;4975297;28;20403;-78
2022/11/09 02:59:34;;;;;;;22.60;17.43;;;;;;;12.05;56.58;101862.13;4972746;28;20425;-78
2022/11/09 03:01:59;;;;;;;21.13;17.13;;;;;;;12.11;56.45;101869.47;4976408;28;20474;-78
2022/11/09 03:04:25;;;;;;;20.00;16.90;;;;;;;11.89;57.20;101865.41;4967236;28;20414;-79
2022/11/09 03:06:51;;;;;;;21.20;16.38;;;;;;;11.99;57.05;101868.88;4971991;28;20399;-78
2022/11/09 03:09:17;;;;;;;23.33;17.25;;;;;;;12.00;56.94;101865.22;4975322;28;20388;-78
2022/11/09 03:11:43;;;;;;;37.95;34.30;;;;;;;12.17;56.51;101868.03;4976512;28;20421;-78
2022/11/09 03:14:09;;;;;;;19.47;12.93;;;;;;;12.04;56.87;101874.56;4974799;28;20940;-79
2022/11/09 03:16:36;;;;;;;16.95;12.50;;;;;;;11.94;57.25;101876.47;4976494;28;20892;-78
2022/11/09 03:19:02;;;;;;;17.23;12.50;;;;;;;11.83;57.68;101877.50;4975589;28;20409;-78
2022/11/09 03:21:28;;;;;;;17.27;12.10;;;;;;;11.70;58.20;101879.66;4974593;28;20475;-79
2022/11/09 03:23:54;;;;;;;16.02;11.32;;;;;;;11.49;58.62;101877.25;4975310;28;20493;-78
2022/11/09 03:26:20;;;;;;;15.70;11.80;;;;;;;11.48;59.10;101880.88;4975587;28;20413;-78
2022/11/09 03:28:46;;;;;;;17.67;13.05;;;;;;;11.70;58.49;101873.50;4976243;28;20452;-78
2022/11/09 03:31:12;;;;;;;17.40;12.13;;;;;;;11.82;57.82;101885.59;4975721;28;20737;-78
2022/11/09 03:33:37;;;;;;;16.02;11.93;;;;;;;11.73;58.04;101883.84;4975972;28;20463;-78
2022/11/09 03:36:03;;;;;;;16.87;12.03;;;;;;;11.84;58.04;101883.63;4976273;28;20804;-78
2022/11/09 03:38:29;;;;;;;17.45;12.00;;;;;;;12.03;57.38;101874.75;4976963;28;20404;-79
2022/11/09 03:40:55;;;;;;;15.77;12.10;;;;;;;12.02;57.42;101873.88;4976815;28;20428;-79
2022/11/09 03:43:20;;;;;;;16.88;12.45;;;;;;;12.04;57.38;101876.38;4973446;28;20430;-78
2022/11/09 03:45:46;;;;;;;16.67;12.03;;;;;;;12.13;57.09;101880.78;4976595;28;20396;-78
2022/11/09 03:48:12;;;;;;;15.63;12.38;;;;;;;11.99;57.62;101883.97;4972852;28;20513;-78
2022/11/09 03:50:39;;;;;;;17.87;12.90;;;;;;;11.96;57.58;101878.97;5007967;28;20985;-79
2022/11/09 03:53:08;;;;;;;15.23;11.90;;;;;;;12.15;57.27;101884.13;5008586;28;20431;-79
2022/11/09 03:55:34;;;;;;;18.27;12.60;;;;;;;12.30;57.03;101886.25;4975627;28;20427;-79
2022/11/09 03:58:00;;;;;;;18.60;12.32;;;;;;;12.35;56.84;101892.81;4985864;28;20430;-79
2022/11/09 04:00:26;;;;;;;18.08;13.85;;;;;;;12.34;56.60;101887.66;4984220;28;20482;-79
2022/11/09 04:02:51;;;;;;;18.20;14.00;;;;;;;12.31;56.61;101887.94;4984291;28;20408;-79
2022/11/09 04:05:17;;;;;;;20.60;14.70;;;;;;;12.22;56.76;101879.88;4981709;28;20387;-79
2022/11/09 04:07:54;;;;;;;17.80;12.68;;;;;;;12.21;57.01;101890.69;4983489;28;20454;-77
2022/11/09 04:10:21;;;;;;;19.00;13.02;;;;;;;12.30;56.83;101892.44;4981433;28;20416;-79
2022/11/09 04:12:47;;;;;;;17.77;12.38;;;;;;;12.25;56.88;101889.41;4980404;28;20435;-78
2022/11/09 04:15:14;;;;;;;16.63;11.82;;;;;;;12.22;56.96;101898.50;5013090;28;20395;-78
2022/11/09 04:17:40;;;;;;;17.10;12.50;;;;;;;12.22;56.98;101895.00;4982781;28;20399;-78
2022/11/09 04:20:07;;;;;;;16.20;12.32;;;;;;;12.17;56.97;101894.63;4981084;28;20392;-79
2022/11/09 04:22:33;;;;;;;15.88;11.85;;;;;;;12.04;57.45;101905.63;4982298;28;20461;-77
2022/11/09 04:24:58;;;;;;;16.35;11.90;;;;;;;12.12;57.30;101891.56;4983634;28;20399;-78
2022/11/09 04:27:24;;;;;;;16.53;11.23;;;;;;;12.27;56.78;101898.03;4982750;28;20403;-78
2022/11/09 04:29:49;;;;;;;33.40;24.70;;;;;;;12.30;56.65;101894.22;4981987;28;20396;-79
2022/11/09 04:32:15;;;;;;;26.77;20.53;;;;;;;12.28;56.84;101894.41;4984167;28;20546;-77
2022/11/09 04:34:40;;;;;;;25.93;21.00;;;;;;;12.22;56.71;101892.34;4982585;28;20399;-80
2022/11/09 04:37:07;;;;;;;19.70;14.48;;;;;;;12.11;56.84;101900.56;4980681;28;20388;-78
2022/11/09 04:39:32;;;;;;;16.92;13.25;;;;;;;12.06;57.06;101895.69;4980751;28;20383;-78
2022/11/09 04:41:58;;;;;;;18.40;12.13;;;;;;;12.03;57.05;101894.16;4998674;28;20415;-78
2022/11/09 04:44:23;;;;;;;16.37;12.27;;;;;;;11.94;57.09;101892.41;4997915;28;20416;-77
2022/11/09 04:46:49;;;;;;;15.47;12.10;;;;;;;12.04;57.10;101900.31;4982255;28;20471;-79
2022/11/09 04:49:14;;;;;;;17.00;12.73;;;;;;;12.08;57.01;101891.03;4983890;28;20408;-77
2022/11/09 04:51:40;;;;;;;22.67;14.33;;;;;;;12.00;57.05;101898.94;4983306;28;20786;-77
2022/11/09 04:54:06;;;;;;;28.13;19.83;;;;;;;12.01;57.27;101897.94;4966641;28;20395;-79
2022/11/09 04:56:31;;;;;;;23.52;16.08;;;;;;;12.15;56.85;101901.91;4984019;28;20388;-79
2022/11/09 04:58:57;;;;;;;22.73;15.13;;;;;;;12.15;56.87;101905.41;4983414;28;20392;-79
2022/11/09 05:01:22;;;;;;;19.75;14.05;;;;;;;12.19;56.58;101903.28;4982472;28;20387;-80
2022/11/09 05:03:49;;;;;;;18.52;13.18;;;;;;;12.25;56.35;101908.00;4983278;28;20399;-79
2022/11/09 05:06:33;;;;;;;17.67;13.20;;;;;;;12.15;56.30;101912.53;4981830;28;20387;-79
2022/11/09 05:09:04;;;;;;;17.30;12.13;;;;;;;12.03;56.81;101911.94;4982207;28;20392;-79
2022/11/09 05:11:30;;;;;;;16.63;11.30;;;;;;;11.97;57.08;101916.00;4983467;28;20418;-79
2022/11/09 05:13:56;;;;;;;15.85;11.85;;;;;;;11.99;56.93;101913.22;4982204;28;20387;-79
2022/11/09 05:16:22;;;;;;;18.58;12.18;;;;;;;11.99;56.84;101914.06;5013903;28;20404;-79
2022/11/09 05:18:48;;;;;;;18.25;13.07;;;;;;;12.00;56.69;101918.38;4982686;28;20397;-79
2022/11/09 05:21:14;;;;;;;15.93;12.40;;;;;;;11.92;57.05;101910.34;4981020;28;20899;-78
2022/11/09 05:23:58;;;;;;;16.52;12.00;;;;;;;11.99;57.09;101927.34;4977928;28;20427;-78
2022/11/09 05:26:52;;;;;;;15.00;11.40;;;;;;;11.94;56.96;101928.75;4982669;28;20399;-80
2022/11/09 05:29:18;;;;;;;14.95;11.00;;;;;;;11.92;57.14;101928.06;4980958;28;20402;-79
2022/11/09 05:31:45;;;;;;;14.97;11.53;;;;;;;11.99;56.98;101923.84;4983045;28;20439;-80
2022/11/09 05:34:12;;;;;;;17.88;11.60;;;;;;;12.10;56.66;101928.97;4977442;28;20403;-80
2022/11/09 05:36:38;;;;;;;16.23;11.30;;;;;;;12.14;56.64;101924.19;4977681;28;20395;-79
2022/11/09 05:39:03;;;;;;;17.83;12.70;;;;;;;12.16;56.58;101924.88;4982861;28;20410;-79
2022/11/09 05:41:28;;;;;;;19.92;13.18;;;;;;;12.19;56.71;101935.19;4983145;28;20387;-80
2022/11/09 05:43:54;;;;;;;21.60;12.93;;;;;;;12.09;57.01;101935.25;4945283;28;20468;-78
2022/11/09 05:46:20;;;;;;;19.37;13.40;;;;;;;11.94;57.89;101931.41;4983233;28;20443;-79
2022/11/09 05:48:45;;;;;;;18.48;13.50;;;;;;;11.91;58.08;101937.88;4986839;28;20403;-80
2022/11/09 05:51:12;;;;;;;21.50;14.33;;;;;;;11.85;58.56;101944.59;4991232;28;20452;-78
2022/11/09 05:53:38;;;;;;;20.15;13.98;;;;;;;11.80;59.06;101946.03;4992748;28;20451;-80
2022/11/09 05:56:07;;;;;;;21.17;14.30;;;;;;;11.79;59.05;101945.19;4991352;28;20399;-79
2022/11/09 05:58:36;;;;;;;21.90;14.13;;;;;;;11.86;59.02;101940.94;4990458;28;20394;-79
2022/11/09 06:01:06;;;;;;;23.35;16.17;;;;;;;11.83;59.21;101951.88;4987102;28;20379;-79
2022/11/09 06:03:32;;;;;;;22.50;16.25;;;;;;;11.88;59.34;101954.06;4983776;28;20391;-78
2022/11/09 06:06:02;;;;;;;25.60;16.60;;;;;;;11.99;59.25;101959.25;4981850;28;20380;-78
2022/11/09 06:08:28;;;;;;;27.20;17.38;;;;;;;11.95;59.38;101960.50;4983965;28;20403;-79
2022/11/09 06:11:05;;;;;;;23.48;16.70;;;;;;;11.85;59.51;101951.72;4986802;28;20407;-80
2022/11/09 06:13:31;;;;;;;24.63;17.63;;;;;;;11.86;59.94;101967.50;5017878;28;20387;-78
2022/11/09 06:16:03;;;;;;;26.38;17.63;;;;;;;11.89;59.81;101962.91;4985145;28;20391;-78
2022/11/09 06:18:30;;;;;;;27.92;18.85;;;;;;;11.96;60.03;101972.00;4987944;28;20434;-78
2022/11/09 06:20:58;;;;;;;27.65;18.77;;;;;;;12.06;59.55;101962.13;4984282;28;20856;-79
2022/11/09 06:23:24;;;;;;;29.38;19.70;;;;;;;12.16;59.38;101970.88;4981102;28;20419;-79
2022/11/09 06:25:58;;;;;;;28.50;20.55;;;;;;;12.17;59.63;101972.56;4983351;28;20403;-79
2022/11/09 06:28:24;;;;;;;29.17;21.10;;;;;;;12.22;59.57;101978.25;4997925;28;20395;-78
2022/11/09 06:30:49;;;;;;;31.70;20.50;;;;;;;12.25;59.71;101966.50;4983916;28;20496;-78
2022/11/09 06:33:15;;;;;;;32.33;20.50;;;;;;;12.26;59.76;101977.94;4978161;28;20878;-78
2022/11/09 06:35:40;;;;;;;29.98;20.08;;;;;;;12.29;59.68;101982.97;4976277;28;20415;-79
2022/11/09 06:38:08;;;;;;;30.20;20.90;;;;;;;12.31;59.85;101979.16;4981383;28;20393;-79
2022/11/09 06:40:35;;;;;;;31.45;20.95;;;;;;;12.36;59.75;101982.22;4984909;28;20402;-78
2022/11/09 06:43:02;;;;;;;30.98;21.38;;;;;;;12.41;59.62;101989.75;4984038;28;20383;-80
2022/11/09 06:45:29;;;;;;;30.23;20.60;;;;;;;12.52;59.52;101989.53;4986968;28;20464;-79
2022/11/09 06:47:57;;;;;;;38.50;24.20;;;;;;;12.55;59.44;101988.38;4990837;28;20487;-79
2022/11/09 06:50:24;;;;;;;47.20;24.77;;;;;;;12.52;59.50;101994.03;4986056;28;20410;-79
2022/11/09 06:52:49;;;;;;;61.55;26.90;;;;;;;12.42;59.69;101999.38;4984859;28;20848;-80
2022/11/09 06:55:16;;;;;;;50.65;27.77;;;;;;;12.39;59.59;101999.72;4985302;28;20403;-79
2022/11/09 06:57:41;;;;;;;44.57;27.70;;;;;;;12.36;59.81;101986.72;4963977;29;20409;-79
2022/11/09 07:00:08;;;;;;;43.63;27.90;;;;;;;12.41;59.26;101995.06;4987358;28;20383;-78
2022/11/09 07:02:33;;;;;;;42.90;28.37;;;;;;;12.44;59.59;101989.44;4986991;28;20430;-80
2022/11/09 07:04:59;;;;;;;60.45;29.00;;;;;;;12.45;59.59;101990.28;4984555;28;20381;-79
2022/11/09 07:07:25;;;;;;;43.30;28.33;;;;;;;12.45;59.82;101991.13;4981877;28;20423;-80
2022/11/09 07:09:51;;;;;;;46.20;28.13;;;;;;;12.43;59.85;101985.13;4980334;28;20380;-79
2022/11/09 07:12:16;;;;;;;51.57;29.77;;;;;;;12.49;59.71;101984.50;4986431;28;20426;-79
2022/11/09 07:14:42;;;;;;;41.38;28.52;;;;;;;12.58;59.97;101978.28;4981370;28;20388;-79
2022/11/09 07:17:08;;;;;;;40.60;27.63;;;;;;;12.58;59.83;101991.56;5009446;28;20393;-79
2022/11/09 07:19:33;;;;;;;39.80;27.57;;;;;;;12.61;59.84;101990.44;4988404;28;20391;-79
2022/11/09 07:21:59;;;;;;;39.15;26.92;;;;;;;12.68;59.97;101974.72;4982711;28;20415;-77
2022/11/09 07:24:25;;;;;;;40.37;27.60;;;;;;;12.74;59.66;101982.91;4983992;28;20438;-79
2022/11/09 07:26:50;;;;;;;38.33;26.23;;;;;;;12.80;59.63;101977.00;5001052;28;20404;-78
2022/11/09 07:29:16;;;;;;;40.03;27.13;;;;;;;13.00;59.56;101979.47;4988331;28;20391;-80
2022/11/09 07:31:41;;;;;;;42.08;27.75;;;;;;;13.01;59.43;101981.13;4988596;28;20422;-81
2022/11/09 07:34:07;;;;;;;40.70;27.70;;;;;;;13.15;59.14;101974.41;4977740;28;20457;-78
2022/11/09 07:36:35;;;;;;;39.08;27.27;;;;;;;13.26;59.25;101984.81;4987077;28;20459;-81
2022/11/09 07:39:01;;;;;;;40.65;28.35;;;;;;;13.40;58.95;101970.13;4990695;28;20391;-80
2022/11/09 07:41:27;;;;;;;41.00;28.43;;;;;;;13.43;58.51;101975.09;4984318;28;20398;-78
2022/11/09 07:43:52;;;;;;;38.63;27.73;;;;;;;13.47;58.22;101972.97;4988560;28;20423;-79
2022/11/09 07:46:18;;;;;;;44.17;27.53;;;;;;;13.57;58.32;101968.38;4989670;28;20394;-80
2022/11/09 07:48:43;;;;;;;38.23;26.70;;;;;;;13.67;57.71;101969.09;5003452;28;20397;-80
2022/11/09 07:51:09;;;;;;;42.05;27.85;;;;;;;13.63;57.78;101975.75;4989860;28;20411;-79
2022/11/09 07:53:34;;;;;;;42.00;27.40;;;;;;;13.65;57.65;101979.06;4988087;28;20387;-81
2022/11/09 07:56:01;;;;;;;37.73;27.70;;;;;;;13.56;57.99;101975.53;4987359;28;20383;-80
2022/11/09 07:58:28;;;;;;;39.58;27.67;;;;;;;13.61;57.97;101982.22;4987194;28;20384;-79
2022/11/09 08:00:54;;;;;;;38.15;27.13;;;;;;;13.56;58.10;101983.53;4986474;28;20578;-82
2022/11/09 08:03:20;;;;;;;39.17;26.67;;;;;;;13.63;57.55;101982.88;4978002;28;20397;-80
2022/11/09 08:05:47;;;;;;;37.23;25.53;;;;;;;13.54;57.52;101977.53;5019950;28;20399;-78
2022/11/09 08:08:14;;;;;;;36.67;24.88;;;;;;;13.60;57.76;101983.22;4989882;28;20454;-80
2022/11/09 08:10:40;;;;;;;35.50;24.83;;;;;;;13.59;57.70;101979.69;4986756;28;20430;-80
2022/11/09 08:13:09;;;;;;;38.67;25.73;;;;;;;13.57;57.63;101982.50;4987110;28;20375;-79
2022/11/09 08:15:37;;;;;;;34.35;24.40;;;;;;;13.58;57.22;101986.03;4986378;28;20396;-79
2022/11/09 08:18:06;;;;;;;35.72;24.23;;;;;;;13.56;57.54;101980.03;4989997;28;20418;-79
2022/11/09 08:20:32;;;;;;;35.20;23.70;;;;;;;13.67;57.09;101990.41;4987396;28;20386;-79
2022/11/09 08:22:58;;;;;;;31.50;22.33;;;;;;;13.70;57.17;101982.09;4986924;28;20419;-78
2022/11/09 08:25:24;;;;;;;32.55;23.75;;;;;;;13.67;57.25;101985.06;4985933;28;20395;-78
2022/11/09 08:27:49;;;;;;;34.10;23.47;;;;;;;13.57;57.44;101989.69;5015376;28;20391;-81
2022/11/09 08:30:20;;;;;;;32.78;22.83;;;;;;;13.63;57.38;101990.88;4984860;28;20483;-78
2022/11/09 08:32:46;;;;;;;33.60;22.92;;;;;;;13.62;57.24;101991.88;4988008;28;20394;-81
2022/11/09 08:35:17;;;;;;;35.88;24.00;;;;;;;13.74;57.11;101985.28;4985971;28;20401;-78
2022/11/09 08:37:45;;;;;;;34.80;23.23;;;;;;;13.86;56.86;101996.47;4985495;28;20413;-80
2022/11/09 08:40:11;;;;;;;38.25;24.70;;;;;;;13.99;56.68;101991.56;4983421;28;20419;-78
2022/11/09 08:42:37;;;;;;;34.58;24.25;;;;;;;14.07;56.50;101986.22;4985852;28;20419;-78
2022/11/09 08:45:03;;;;;;;36.17;24.73;;;;;;;14.11;56.22;101992.91;4986695;28;20474;-80
2022/11/09 08:47:29;;;;;;;35.97;24.60;;;;;;;14.08;56.18;101985.25;5020174;28;20387;-78
2022/11/09 08:49:54;;;;;;;40.37;24.17;;;;;;;14.12;56.24;101997.25;5022096;28;20431;-79
2022/11/09 08:52:20;;;;;;;35.10;24.17;;;;;;;14.28;55.84;102000.97;4988324;28;20387;-79
2022/11/09 08:54:45;;;;;;;39.13;24.87;;;;;;;14.30;55.81;101997.13;4983508;28;20399;-79
2022/11/09 08:57:12;;;;;;;35.25;24.70;;;;;;;14.18;55.64;101994.94;4987914;28;20399;-82
2022/11/09 08:59:37;;;;;;;33.45;24.60;;;;;;;14.37;55.83;101996.47;4988940;28;20459;-80
2022/11/09 09:02:03;;;;;;;33.75;24.77;;;;;;;14.40;55.39;101996.97;5017820;28;20388;-80
2022/11/09 09:04:29;;;;;;;38.60;25.10;;;;;;;14.37;55.41;101996.47;4990022;28;20380;-80
2022/11/09 09:06:55;;;;;;;35.13;23.95;;;;;;;14.43;55.27;101991.31;5003724;28;20388;-80
2022/11/09 09:09:21;;;;;;;33.40;24.80;;;;;;;14.50;55.11;101992.34;4988395;28;20387;-81
2022/11/09 09:11:47;;;;;;;38.85;25.75;;;;;;;14.54;54.96;101990.16;4987803;28;20442;-80
2022/11/09 09:14:13;;;;;;;36.73;25.60;;;;;;;14.64;54.94;101990.03;5018855;28;20419;-80
2022/11/09 09:16:39;;;;;;;40.88;26.00;;;;;;;14.70;54.90;101998.22;4986041;28;20434;-81
2022/11/09 09:19:04;;;;;;;34.83;25.57;;;;;;;14.80;54.80;101998.09;4986329;28;20392;-79
2022/11/09 09:21:30;;;;;;;35.58;24.38;;;;;;;14.90;54.24;101995.22;4983640;28;20884;-79
2022/11/09 09:23:56;;;;;;;42.97;26.27;;;;;;;14.94;54.37;101996.56;4988334;28;20415;-82
2022/11/09 09:26:21;;;;;;;34.43;24.80;;;;;;;15.10;54.17;101985.03;4984987;28;20482;-79
2022/11/09 09:28:47;;;;;;;35.93;25.73;;;;;;;15.15;53.87;101990.72;4986989;28;20410;-80
2022/11/09 09:31:12;;;;;;;38.00;25.95;;;;;;;15.10;54.05;101996.53;4987045;28;20423;-83
2022/11/09 09:33:38;;;;;;;37.23;26.63;;;;;;;15.05;53.85;101982.88;4985218;28;20391;-78
2022/11/09 09:36:04;;;;;;;37.80;26.35;;;;;;;15.05;54.08;101990.03;4985713;28;20406;-80
2022/11/09 09:38:30;;;;;;;44.20;30.73;;;;;;;15.23;53.87;101985.38;4985278;28;20862;-79
2022/11/09 09:40:58;;;;;;;36.55;26.25;;;;;;;15.28;53.91;101982.16;4984579;28;20470;-80
2022/11/09 09:43:41;;;;;;;36.45;25.60;;;;;;;15.51;53.47;101982.28;4981507;28;20456;-80
2022/11/09 09:46:41;;;;;;;37.13;25.98;;;;;;;15.29;53.36;101981.19;5011594;28;20409;-79
2022/11/09 09:49:13;;;;;;;36.60;25.77;;;;;;;15.35;53.49;101980.50;5012324;28;20387;-82
2022/11/09 09:52:02;;;;;;;41.63;25.92;;;;;;;15.52;53.14;101972.44;4989957;28;20451;-80
2022/11/09 09:54:38;;;;;;;35.20;25.83;;;;;;;15.60;52.85;101964.41;5015662;28;20802;-80
2022/11/09 09:57:03;;;;;;;40.28;26.40;;;;;;;15.70;52.78;101970.38;4988831;28;20387;-80
2022/11/09 09:59:40;;;;;;;37.70;27.07;;;;;;;15.65;52.93;101962.03;4987746;28;20422;-81
2022/11/09 10:02:25;;;;;;;39.25;26.92;;;;;;;15.83;52.82;101968.00;4989082;28;20383;-80
2022/11/09 10:04:56;;;;;;;40.00;27.48;;;;;;;15.83;52.76;101953.81;4988690;28;20402;-81
2022/11/09 10:07:43;;;;;;;40.03;27.27;;;;;;;15.63;52.83;101954.19;4985402;28;20462;-82
2022/11/09 10:10:19;;;;;;;37.55;28.02;;;;;;;15.58;52.87;101947.69;4976294;28;20486;-82
2022/11/09 10:13:11;;;;;;;40.88;29.05;;;;;;;15.74;52.96;101957.50;4979757;28;20407;-80
2022/11/09 10:15:47;;;;;;;38.90;27.63;;;;;;;15.73;52.87;101951.31;5012473;28;21009;-79
2022/11/09 10:18:30;;;;;;;39.88;28.48;;;;;;;15.52;53.14;101949.22;4976379;28;20402;-80
2022/11/09 10:21:02;;;;;;;43.13;30.50;;;;;;;15.34;53.67;101944.09;4986623;28;20384;-80
2022/11/09 10:23:46;;;;;;;41.38;28.92;;;;;;;15.60;53.29;101943.00;4986565;28;20450;-78
2022/11/09 10:26:28;;;;;;;41.83;29.65;;;;;;;15.56;53.47;101939.84;4985740;28;20419;-80
2022/11/09 10:29:00;;;;;;;45.40;29.63;;;;;;;15.56;53.24;101931.84;4985535;28;20383;-79
2022/11/09 10:31:40;;;;;;;41.67;28.90;;;;;;;15.55;53.35;101934.69;4985415;28;20415;-81
2022/11/09 10:34:28;;;;;;;40.70;29.45;;;;;;;15.70;53.21;101932.97;4985576;28;20397;-79
2022/11/09 10:37:30;;;;;;;39.95;28.42;;;;;;;15.54;53.44;101924.97;5007548;28;20429;-81
2022/11/09 10:40:19;;;;;;;39.67;28.20;;;;;;;15.56;53.41;101926.50;4993471;28;20458;-80
2022/11/09 10:42:50;;;;;;;42.15;29.10;;;;;;;15.56;53.62;101917.66;4990747;28;20390;-80
2022/11/09 10:45:38;;;;;;;40.65;29.50;;;;;;;15.95;53.30;101920.28;4989727;28;20423;-80
2022/11/09 10:48:05;;;;;;;39.70;30.15;;;;;;;16.27;52.82;101917.63;4993508;28;20437;-82
2022/11/09 10:50:33;;;;;;;42.55;30.50;;;;;;;16.19;52.44;101918.50;4994593;28;20407;-81
2022/11/09 10:53:23;;;;;;;41.35;28.95;;;;;;;16.24;52.33;101918.78;4996732;28;20399;-79
2022/11/09 10:55:54;;;;;;;44.38;29.75;;;;;;;16.26;52.37;101916.78;4984854;28;20399;-79
2022/11/09 10:58:35;;;;;;;38.83;27.98;;;;;;;16.29;52.25;101904.88;4998178;28;20453;-79
2022/11/09 11:01:12;;;;;;;40.93;27.60;;;;;;;16.39;52.32;101900.13;4991825;28;20427;-81
2022/11/09 11:03:38;;;;;;;41.57;28.60;;;;;;;16.47;51.95;101889.34;4989152;28;20387;-78
2022/11/09 11:06:05;;;;;;;41.75;28.65;;;;;;;16.67;51.60;101891.53;4990360;28;20719;-80
2022/11/09 11:08:36;;;;;;;39.00;27.90;;;;;;;16.60;51.60;101892.25;4989460;28;20394;-82
2022/11/09 11:11:16;;;;;;;39.30;28.95;;;;;;;16.61;51.38;101887.72;5005652;28;20419;-80
2022/11/09 11:13:42;;;;;;;38.47;28.63;;;;;;;16.58;51.45;101885.41;4991291;28;20390;-81
2022/11/09 11:16:26;;;;;;;38.75;28.65;;;;;;;16.79;51.14;101882.03;4991205;28;20384;-80